sensor_id;sensor_type;location;lat;lon;timestamp;P1;durP1;ratioP1;P2;durP2;ratioP2
19798;SDS011;10059;59.850;10.454;2022-08-19T00:00:03;31.70;;;15.27;;
19798;SDS011;10059;59.850;10.454;2022-08-19T00:02:32;30.80;;;15.23;;
19798;SDS011;10059;59.850;10.454;2022-08-19T00:04:59;36.17;;;16.00;;
19798;SDS011;10059;59.850;10.454;2022-08-19T00:07:26;35.13;;;15.80;;
19798;SDS011;10059;59.850;10.454;2022-08-19T00:09:53;32.33;;;16.33;;
19798;SDS011;10059;59.850;10.454;2022-08-19T00:12:22;30.83;;;16.10;;
19798;SDS011;10059;59.850;10.454;2022-08-19T00:14:49;25.17;;;14.63;;
19798;SDS011;10059;59.850;10.454;2022-08-19T00:17:18;27.37;;;14.90;;
19798;SDS011;10059;59.850;10.454;2022-08-19T00:19:44;28.80;;;14.47;;
19798;SDS011;10059;59.850;10.454;2022-08-19T00:22:11;31.40;;;14.47;;
19798;SDS011;10059;59.850;10.454;2022-08-19T00:24:39;28.37;;;14.30;;
19798;SDS011;10059;59.850;10.454;2022-08-19T00:27:08;28.80;;;14.20;;
19798;SDS011;10059;59.850;10.454;2022-08-19T00:29:36;28.27;;;13.03;;
19798;SDS011;10059;59.850;10.454;2022-08-19T00:32:03;29.93;;;13.60;;
19798;SDS011;10059;59.850;10.454;2022-08-19T00:34:31;21.73;;;12.83;;
19798;SDS011;10059;59.850;10.454;2022-08-19T00:36:58;23.97;;;13.10;;
19798;SDS011;10059;59.850;10.454;2022-08-19T00:39:25;22.47;;;12.80;;
19798;SDS011;10059;59.850;10.454;2022-08-19T00:41:52;19.00;;;12.87;;
19798;SDS011;10059;59.850;10.454;2022-08-19T00:44:21;23.93;;;12.93;;
19798;SDS011;10059;59.850;10.454;2022-08-19T00:46:51;26.57;;;13.50;;
19798;SDS011;10059;59.850;10.454;2022-08-19T00:49:20;27.43;;;13.17;;
19798;SDS011;10059;59.850;10.454;2022-08-19T00:51:53;23.10;;;12.83;;
19798;SDS011;10059;59.850;10.454;2022-08-19T00:54:24;20.70;;;12.70;;
19798;SDS011;10059;59.850;10.454;2022-08-19T00:56:51;21.47;;;13.17;;
19798;SDS011;10059;59.850;10.454;2022-08-19T00:59:18;19.77;;;12.87;;
19798;SDS011;10059;59.850;10.454;2022-08-19T01:01:47;24.77;;;13.40;;
19798;SDS011;10059;59.850;10.454;2022-08-19T01:04:15;21.07;;;13.30;;
19798;SDS011;10059;59.850;10.454;2022-08-19T01:06:42;21.43;;;12.40;;
19798;SDS011;10059;59.850;10.454;2022-08-19T01:09:09;23.60;;;12.50;;
19798;SDS011;10059;59.850;10.454;2022-08-19T01:11:38;20.60;;;12.97;;
19798;SDS011;10059;59.850;10.454;2022-08-19T01:14:09;25.43;;;12.57;;
19798;SDS011;10059;59.850;10.454;2022-08-19T01:16:37;27.97;;;14.10;;
19798;SDS011;10059;59.850;10.454;2022-08-19T01:19:07;18.37;;;12.23;;
19798;SDS011;10059;59.850;10.454;2022-08-19T01:21:47;16.80;;;11.90;;
19798;SDS011;10059;59.850;10.454;2022-08-19T01:24:19;20.83;;;12.37;;
19798;SDS011;10059;59.850;10.454;2022-08-19T01:26:46;19.00;;;11.70;;
19798;SDS011;10059;59.850;10.454;2022-08-19T01:29:13;22.50;;;11.43;;
19798;SDS011;10059;59.850;10.454;2022-08-19T01:31:40;19.37;;;11.77;;
19798;SDS011;10059;59.850;10.454;2022-08-19T01:34:08;19.77;;;10.90;;
19798;SDS011;10059;59.850;10.454;2022-08-19T01:36:37;17.40;;;11.20;;
19798;SDS011;10059;59.850;10.454;2022-08-19T01:39:08;16.73;;;11.40;;
19798;SDS011;10059;59.850;10.454;2022-08-19T01:41:38;17.43;;;10.50;;
19798;SDS011;10059;59.850;10.454;2022-08-19T01:44:06;16.37;;;10.20;;
19798;SDS011;10059;59.850;10.454;2022-08-19T01:46:34;17.20;;;10.47;;
19798;SDS011;10059;59.850;10.454;2022-08-19T01:49:02;18.97;;;10.87;;
19798;SDS011;10059;59.850;10.454;2022-08-19T01:51:30;17.33;;;11.30;;
19798;SDS011;10059;59.850;10.454;2022-08-19T01:53:57;18.37;;;10.63;;
19798;SDS011;10059;59.850;10.454;2022-08-19T01:56:24;17.47;;;10.63;;
19798;SDS011;10059;59.850;10.454;2022-08-19T01:58:53;18.67;;;10.33;;
19798;SDS011;10059;59.850;10.454;2022-08-19T02:01:24;15.20;;;9.40;;
19798;SDS011;10059;59.850;10.454;2022-08-19T02:03:50;12.93;;;9.40;;
19798;SDS011;10059;59.850;10.454;2022-08-19T02:06:19;15.17;;;10.50;;
19798;SDS011;10059;59.850;10.454;2022-08-19T02:08:46;16.73;;;10.17;;
19798;SDS011;10059;59.850;10.454;2022-08-19T02:11:18;16.90;;;9.90;;
19798;SDS011;10059;59.850;10.454;2022-08-19T02:13:47;15.40;;;9.63;;
19798;SDS011;10059;59.850;10.454;2022-08-19T02:16:15;16.23;;;10.00;;
19798;SDS011;10059;59.850;10.454;2022-08-19T02:18:43;13.70;;;9.30;;
19798;SDS011;10059;59.850;10.454;2022-08-19T02:21:10;14.10;;;9.37;;
19798;SDS011;10059;59.850;10.454;2022-08-19T02:23:38;14.47;;;9.80;;
19798;SDS011;10059;59.850;10.454;2022-08-19T02:26:05;16.33;;;9.60;;
19798;SDS011;10059;59.850;10.454;2022-08-19T02:28:32;13.87;;;8.50;;
19798;SDS011;10059;59.850;10.454;2022-08-19T02:30:59;14.20;;;8.57;;
19798;SDS011;10059;59.850;10.454;2022-08-19T02:33:29;17.37;;;8.03;;
19798;SDS011;10059;59.850;10.454;2022-08-19T02:35:56;16.67;;;8.97;;
19798;SDS011;10059;59.850;10.454;2022-08-19T02:38:23;14.70;;;8.70;;
19798;SDS011;10059;59.850;10.454;2022-08-19T02:40:52;12.03;;;8.43;;
19798;SDS011;10059;59.850;10.454;2022-08-19T02:43:20;16.03;;;8.87;;
19798;SDS011;10059;59.850;10.454;2022-08-19T02:45:49;10.77;;;7.50;;
19798;SDS011;10059;59.850;10.454;2022-08-19T02:48:16;13.97;;;8.10;;
19798;SDS011;10059;59.850;10.454;2022-08-19T02:50:46;14.10;;;7.93;;
19798;SDS011;10059;59.850;10.454;2022-08-19T02:53:15;11.07;;;7.97;;
19798;SDS011;10059;59.850;10.454;2022-08-19T02:55:43;13.30;;;7.80;;
19798;SDS011;10059;59.850;10.454;2022-08-19T02:58:11;12.30;;;7.77;;
19798;SDS011;10059;59.850;10.454;2022-08-19T03:00:42;12.63;;;7.57;;
19798;SDS011;10059;59.850;10.454;2022-08-19T03:03:09;13.50;;;6.97;;
19798;SDS011;10059;59.850;10.454;2022-08-19T03:05:36;11.67;;;6.37;;
19798;SDS011;10059;59.850;10.454;2022-08-19T03:08:05;7.90;;;6.47;;
19798;SDS011;10059;59.850;10.454;2022-08-19T03:10:39;14.53;;;7.40;;
19798;SDS011;10059;59.850;10.454;2022-08-19T03:13:09;10.13;;;6.90;;
19798;SDS011;10059;59.850;10.454;2022-08-19T03:15:38;11.27;;;7.30;;
19798;SDS011;10059;59.850;10.454;2022-08-19T03:18:06;14.40;;;7.43;;
19798;SDS011;10059;59.850;10.454;2022-08-19T03:20:33;10.03;;;6.90;;
19798;SDS011;10059;59.850;10.454;2022-08-19T03:23:00;8.73;;;7.20;;
19798;SDS011;10059;59.850;10.454;2022-08-19T03:25:28;9.97;;;7.10;;
19798;SDS011;10059;59.850;10.454;2022-08-19T03:27:55;20.00;;;7.67;;
19798;SDS011;10059;59.850;10.454;2022-08-19T03:30:22;12.57;;;7.57;;
19798;SDS011;10059;59.850;10.454;2022-08-19T03:32:49;13.27;;;7.40;;
19798;SDS011;10059;59.850;10.454;2022-08-19T03:35:16;13.13;;;7.83;;
19798;SDS011;10059;59.850;10.454;2022-08-19T03:37:43;10.93;;;7.40;;
19798;SDS011;10059;59.850;10.454;2022-08-19T03:40:12;11.03;;;7.73;;
19798;SDS011;10059;59.850;10.454;2022-08-19T03:42:40;12.93;;;8.10;;
19798;SDS011;10059;59.850;10.454;2022-08-19T03:45:07;14.83;;;7.97;;
19798;SDS011;10059;59.850;10.454;2022-08-19T03:47:35;13.63;;;8.03;;
19798;SDS011;10059;59.850;10.454;2022-08-19T03:50:03;11.07;;;7.70;;
19798;SDS011;10059;59.850;10.454;2022-08-19T03:52:30;13.27;;;8.40;;
19798;SDS011;10059;59.850;10.454;2022-08-19T03:54:57;11.87;;;7.67;;
19798;SDS011;10059;59.850;10.454;2022-08-19T03:57:24;13.57;;;8.63;;
19798;SDS011;10059;59.850;10.454;2022-08-19T03:59:52;13.20;;;8.50;;
19798;SDS011;10059;59.850;10.454;2022-08-19T04:02:19;13.83;;;8.07;;
19798;SDS011;10059;59.850;10.454;2022-08-19T04:04:46;13.33;;;8.33;;
19798;SDS011;10059;59.850;10.454;2022-08-19T04:07:13;14.40;;;8.20;;
19798;SDS011;10059;59.850;10.454;2022-08-19T04:09:43;12.93;;;8.97;;
19798;SDS011;10059;59.850;10.454;2022-08-19T04:12:10;16.43;;;8.73;;
19798;SDS011;10059;59.850;10.454;2022-08-19T04:14:37;12.60;;;8.87;;
19798;SDS011;10059;59.850;10.454;2022-08-19T04:17:05;12.83;;;9.07;;
19798;SDS011;10059;59.850;10.454;2022-08-19T04:19:34;17.50;;;8.90;;
19798;SDS011;10059;59.850;10.454;2022-08-19T04:22:02;19.30;;;9.03;;
19798;SDS011;10059;59.850;10.454;2022-08-19T04:24:30;13.97;;;8.70;;
19798;SDS011;10059;59.850;10.454;2022-08-19T04:26:58;10.90;;;8.00;;
19798;SDS011;10059;59.850;10.454;2022-08-19T04:29:26;13.13;;;8.23;;
19798;SDS011;10059;59.850;10.454;2022-08-19T04:31:55;21.03;;;8.07;;
19798;SDS011;10059;59.850;10.454;2022-08-19T04:34:27;11.97;;;7.87;;
19798;SDS011;10059;59.850;10.454;2022-08-19T04:36:55;16.10;;;6.83;;
19798;SDS011;10059;59.850;10.454;2022-08-19T04:39:24;10.20;;;7.47;;
19798;SDS011;10059;59.850;10.454;2022-08-19T04:42:13;11.57;;;6.37;;
19798;SDS011;10059;59.850;10.454;2022-08-19T04:44:58;9.60;;;6.90;;
19798;SDS011;10059;59.850;10.454;2022-08-19T04:47:25;11.53;;;6.57;;
19798;SDS011;10059;59.850;10.454;2022-08-19T04:49:54;11.93;;;6.87;;
19798;SDS011;10059;59.850;10.454;2022-08-19T04:52:21;12.90;;;6.70;;
19798;SDS011;10059;59.850;10.454;2022-08-19T04:54:48;8.10;;;5.73;;
19798;SDS011;10059;59.850;10.454;2022-08-19T04:57:14;11.33;;;6.03;;
19798;SDS011;10059;59.850;10.454;2022-08-19T04:59:41;12.43;;;5.77;;
19798;SDS011;10059;59.850;10.454;2022-08-19T05:02:08;10.53;;;5.90;;
19798;SDS011;10059;59.850;10.454;2022-08-19T05:04:36;8.43;;;5.63;;
19798;SDS011;10059;59.850;10.454;2022-08-19T05:07:05;8.10;;;5.53;;
19798;SDS011;10059;59.850;10.454;2022-08-19T05:09:33;10.43;;;5.50;;
19798;SDS011;10059;59.850;10.454;2022-08-19T05:12:00;8.63;;;5.10;;
19798;SDS011;10059;59.850;10.454;2022-08-19T05:14:28;25.57;;;7.03;;
19798;SDS011;10059;59.850;10.454;2022-08-19T05:16:54;13.57;;;5.73;;
19798;SDS011;10059;59.850;10.454;2022-08-19T05:19:21;11.77;;;4.93;;
19798;SDS011;10059;59.850;10.454;2022-08-19T05:22:07;8.50;;;4.80;;
19798;SDS011;10059;59.850;10.454;2022-08-19T05:24:51;8.37;;;4.20;;
19798;SDS011;10059;59.850;10.454;2022-08-19T05:27:18;6.47;;;4.30;;
19798;SDS011;10059;59.850;10.454;2022-08-19T05:29:45;7.00;;;4.47;;
19798;SDS011;10059;59.850;10.454;2022-08-19T05:32:12;8.77;;;4.33;;
19798;SDS011;10059;59.850;10.454;2022-08-19T05:34:39;10.57;;;4.20;;
19798;SDS011;10059;59.850;10.454;2022-08-19T05:37:07;7.13;;;3.90;;
19798;SDS011;10059;59.850;10.454;2022-08-19T05:39:36;8.10;;;4.07;;
19798;SDS011;10059;59.850;10.454;2022-08-19T05:42:06;7.57;;;3.90;;
19798;SDS011;10059;59.850;10.454;2022-08-19T05:44:37;6.63;;;3.60;;
19798;SDS011;10059;59.850;10.454;2022-08-19T05:47:08;7.77;;;3.47;;
19798;SDS011;10059;59.850;10.454;2022-08-19T05:49:36;11.87;;;3.60;;
19798;SDS011;10059;59.850;10.454;2022-08-19T05:52:03;9.40;;;3.57;;
19798;SDS011;10059;59.850;10.454;2022-08-19T05:54:33;9.33;;;3.53;;
19798;SDS011;10059;59.850;10.454;2022-08-19T05:57:01;10.47;;;3.60;;
19798;SDS011;10059;59.850;10.454;2022-08-19T05:59:28;8.57;;;3.60;;
19798;SDS011;10059;59.850;10.454;2022-08-19T06:01:55;8.77;;;3.40;;
19798;SDS011;10059;59.850;10.454;2022-08-19T06:04:22;8.87;;;3.40;;
19798;SDS011;10059;59.850;10.454;2022-08-19T06:06:51;6.97;;;3.20;;
19798;SDS011;10059;59.850;10.454;2022-08-19T06:09:19;8.57;;;3.00;;
19798;SDS011;10059;59.850;10.454;2022-08-19T06:11:49;9.17;;;3.07;;
19798;SDS011;10059;59.850;10.454;2022-08-19T06:14:19;9.17;;;3.17;;
19798;SDS011;10059;59.850;10.454;2022-08-19T06:16:48;8.67;;;3.40;;
19798;SDS011;10059;59.850;10.454;2022-08-19T06:19:17;5.57;;;2.77;;
19798;SDS011;10059;59.850;10.454;2022-08-19T06:21:46;6.27;;;2.97;;
19798;SDS011;10059;59.850;10.454;2022-08-19T06:24:15;6.63;;;2.60;;
19798;SDS011;10059;59.850;10.454;2022-08-19T06:26:45;16.53;;;2.90;;
19798;SDS011;10059;59.850;10.454;2022-08-19T06:29:15;7.67;;;2.80;;
19798;SDS011;10059;59.850;10.454;2022-08-19T06:31:44;7.73;;;2.50;;
19798;SDS011;10059;59.850;10.454;2022-08-19T06:34:12;10.87;;;3.23;;
19798;SDS011;10059;59.850;10.454;2022-08-19T06:36:40;23.37;;;4.03;;
19798;SDS011;10059;59.850;10.454;2022-08-19T06:39:09;26.07;;;4.13;;
19798;SDS011;10059;59.850;10.454;2022-08-19T06:41:39;13.80;;;3.30;;
19798;SDS011;10059;59.850;10.454;2022-08-19T06:44:07;15.67;;;3.13;;
19798;SDS011;10059;59.850;10.454;2022-08-19T06:46:35;7.53;;;3.00;;
19798;SDS011;10059;59.850;10.454;2022-08-19T06:49:03;8.93;;;2.63;;
19798;SDS011;10059;59.850;10.454;2022-08-19T06:51:30;11.10;;;2.80;;
19798;SDS011;10059;59.850;10.454;2022-08-19T06:53:59;7.20;;;2.30;;
19798;SDS011;10059;59.850;10.454;2022-08-19T06:56:28;9.43;;;2.37;;
19798;SDS011;10059;59.850;10.454;2022-08-19T06:58:58;9.70;;;2.20;;
19798;SDS011;10059;59.850;10.454;2022-08-19T07:01:25;5.67;;;1.97;;
19798;SDS011;10059;59.850;10.454;2022-08-19T07:03:54;7.93;;;2.30;;
19798;SDS011;10059;59.850;10.454;2022-08-19T07:06:21;7.97;;;1.80;;
19798;SDS011;10059;59.850;10.454;2022-08-19T07:08:48;7.87;;;1.90;;
19798;SDS011;10059;59.850;10.454;2022-08-19T07:11:17;5.30;;;2.10;;
19798;SDS011;10059;59.850;10.454;2022-08-19T07:13:45;8.30;;;2.23;;
19798;SDS011;10059;59.850;10.454;2022-08-19T07:16:14;5.20;;;1.83;;
19798;SDS011;10059;59.850;10.454;2022-08-19T07:18:44;6.20;;;2.20;;
19798;SDS011;10059;59.850;10.454;2022-08-19T07:21:13;8.97;;;2.20;;
19798;SDS011;10059;59.850;10.454;2022-08-19T07:23:42;7.27;;;2.20;;
19798;SDS011;10059;59.850;10.454;2022-08-19T07:26:10;7.73;;;2.40;;
19798;SDS011;10059;59.850;10.454;2022-08-19T07:28:39;5.23;;;2.27;;
19798;SDS011;10059;59.850;10.454;2022-08-19T07:31:08;7.87;;;2.43;;
19798;SDS011;10059;59.850;10.454;2022-08-19T07:33:36;10.07;;;1.90;;
19798;SDS011;10059;59.850;10.454;2022-08-19T07:36:03;9.33;;;2.10;;
19798;SDS011;10059;59.850;10.454;2022-08-19T07:38:32;4.63;;;2.00;;
19798;SDS011;10059;59.850;10.454;2022-08-19T07:41:00;5.03;;;1.90;;
19798;SDS011;10059;59.850;10.454;2022-08-19T07:43:27;4.83;;;2.00;;
19798;SDS011;10059;59.850;10.454;2022-08-19T07:45:54;7.30;;;2.10;;
19798;SDS011;10059;59.850;10.454;2022-08-19T07:48:22;5.10;;;1.80;;
19798;SDS011;10059;59.850;10.454;2022-08-19T07:50:50;7.37;;;2.10;;
19798;SDS011;10059;59.850;10.454;2022-08-19T07:53:18;10.17;;;2.10;;
19798;SDS011;10059;59.850;10.454;2022-08-19T07:55:46;10.50;;;2.40;;
19798;SDS011;10059;59.850;10.454;2022-08-19T07:58:14;6.00;;;2.20;;
19798;SDS011;10059;59.850;10.454;2022-08-19T08:00:42;8.53;;;2.60;;
19798;SDS011;10059;59.850;10.454;2022-08-19T08:03:10;6.17;;;2.10;;
19798;SDS011;10059;59.850;10.454;2022-08-19T08:05:38;9.57;;;2.30;;
19798;SDS011;10059;59.850;10.454;2022-08-19T08:08:22;7.03;;;2.20;;
19798;SDS011;10059;59.850;10.454;2022-08-19T08:11:05;5.77;;;2.17;;
19798;SDS011;10059;59.850;10.454;2022-08-19T08:13:32;6.20;;;1.90;;
19798;SDS011;10059;59.850;10.454;2022-08-19T08:16:00;8.17;;;2.20;;
19798;SDS011;10059;59.850;10.454;2022-08-19T08:18:27;8.40;;;2.47;;
19798;SDS011;10059;59.850;10.454;2022-08-19T08:20:54;8.47;;;2.20;;
19798;SDS011;10059;59.850;10.454;2022-08-19T08:23:22;8.23;;;2.13;;
19798;SDS011;10059;59.850;10.454;2022-08-19T08:25:50;5.53;;;1.87;;
19798;SDS011;10059;59.850;10.454;2022-08-19T08:28:19;9.43;;;2.10;;
19798;SDS011;10059;59.850;10.454;2022-08-19T08:30:47;4.63;;;2.20;;
19798;SDS011;10059;59.850;10.454;2022-08-19T08:33:17;5.60;;;2.30;;
19798;SDS011;10059;59.850;10.454;2022-08-19T08:35:46;9.60;;;2.23;;
19798;SDS011;10059;59.850;10.454;2022-08-19T08:38:14;4.30;;;2.03;;
19798;SDS011;10059;59.850;10.454;2022-08-19T08:40:43;8.80;;;2.10;;
19798;SDS011;10059;59.850;10.454;2022-08-19T08:43:23;5.27;;;1.93;;
19798;SDS011;10059;59.850;10.454;2022-08-19T08:46:00;5.83;;;2.30;;
19798;SDS011;10059;59.850;10.454;2022-08-19T08:48:32;4.23;;;1.87;;
19798;SDS011;10059;59.850;10.454;2022-08-19T08:51:05;8.37;;;2.27;;
19798;SDS011;10059;59.850;10.454;2022-08-19T08:53:44;5.83;;;2.00;;
19798;SDS011;10059;59.850;10.454;2022-08-19T08:56:15;6.37;;;2.10;;
19798;SDS011;10059;59.850;10.454;2022-08-19T08:58:48;8.70;;;1.80;;
19798;SDS011;10059;59.850;10.454;2022-08-19T09:01:20;5.43;;;1.90;;
19798;SDS011;10059;59.850;10.454;2022-08-19T09:03:48;8.27;;;2.20;;
19798;SDS011;10059;59.850;10.454;2022-08-19T09:06:17;6.73;;;1.77;;
19798;SDS011;10059;59.850;10.454;2022-08-19T09:08:54;10.30;;;1.97;;
19798;SDS011;10059;59.850;10.454;2022-08-19T09:11:33;4.67;;;1.83;;
19798;SDS011;10059;59.850;10.454;2022-08-19T09:14:14;8.10;;;2.07;;
19798;SDS011;10059;59.850;10.454;2022-08-19T09:16:54;9.30;;;2.00;;
19798;SDS011;10059;59.850;10.454;2022-08-19T09:19:22;5.13;;;1.70;;
19798;SDS011;10059;59.850;10.454;2022-08-19T09:21:49;7.43;;;1.87;;
19798;SDS011;10059;59.850;10.454;2022-08-19T09:24:16;6.27;;;2.00;;
19798;SDS011;10059;59.850;10.454;2022-08-19T09:26:43;4.53;;;1.80;;
19798;SDS011;10059;59.850;10.454;2022-08-19T09:29:12;7.47;;;2.10;;
19798;SDS011;10059;59.850;10.454;2022-08-19T09:31:39;5.67;;;2.10;;
19798;SDS011;10059;59.850;10.454;2022-08-19T09:34:06;6.57;;;1.80;;
19798;SDS011;10059;59.850;10.454;2022-08-19T09:36:33;8.23;;;2.10;;
19798;SDS011;10059;59.850;10.454;2022-08-19T09:39:04;7.67;;;1.80;;
19798;SDS011;10059;59.850;10.454;2022-08-19T09:41:32;5.73;;;1.70;;
19798;SDS011;10059;59.850;10.454;2022-08-19T09:43:59;7.13;;;2.00;;
19798;SDS011;10059;59.850;10.454;2022-08-19T09:46:28;7.57;;;1.77;;
19798;SDS011;10059;59.850;10.454;2022-08-19T09:48:57;3.50;;;1.43;;
19798;SDS011;10059;59.850;10.454;2022-08-19T09:51:25;7.07;;;1.63;;
19798;SDS011;10059;59.850;10.454;2022-08-19T09:53:54;4.80;;;1.50;;
19798;SDS011;10059;59.850;10.454;2022-08-19T09:56:24;5.20;;;1.60;;
19798;SDS011;10059;59.850;10.454;2022-08-19T09:58:51;8.63;;;1.70;;
19798;SDS011;10059;59.850;10.454;2022-08-19T10:01:19;6.87;;;1.60;;
19798;SDS011;10059;59.850;10.454;2022-08-19T10:03:49;3.87;;;1.67;;
19798;SDS011;10059;59.850;10.454;2022-08-19T10:06:20;6.30;;;1.40;;
19798;SDS011;10059;59.850;10.454;2022-08-19T10:08:48;7.70;;;1.70;;
19798;SDS011;10059;59.850;10.454;2022-08-19T10:11:16;4.60;;;1.50;;
19798;SDS011;10059;59.850;10.454;2022-08-19T10:13:44;5.43;;;1.70;;
19798;SDS011;10059;59.850;10.454;2022-08-19T10:16:13;8.40;;;1.87;;
19798;SDS011;10059;59.850;10.454;2022-08-19T10:18:42;7.67;;;2.10;;
19798;SDS011;10059;59.850;10.454;2022-08-19T10:21:11;5.80;;;1.93;;
19798;SDS011;10059;59.850;10.454;2022-08-19T10:23:41;7.43;;;1.93;;
19798;SDS011;10059;59.850;10.454;2022-08-19T10:26:11;5.07;;;1.87;;
19798;SDS011;10059;59.850;10.454;2022-08-19T10:28:39;9.10;;;2.00;;
19798;SDS011;10059;59.850;10.454;2022-08-19T10:31:07;4.87;;;1.73;;
19798;SDS011;10059;59.850;10.454;2022-08-19T10:33:36;6.70;;;2.00;;
19798;SDS011;10059;59.850;10.454;2022-08-19T10:36:05;9.33;;;1.97;;
19798;SDS011;10059;59.850;10.454;2022-08-19T10:38:35;6.60;;;1.57;;
19798;SDS011;10059;59.850;10.454;2022-08-19T10:41:06;6.73;;;2.00;;
19798;SDS011;10059;59.850;10.454;2022-08-19T10:43:34;2.93;;;1.50;;
19798;SDS011;10059;59.850;10.454;2022-08-19T10:46:03;6.07;;;2.13;;
19798;SDS011;10059;59.850;10.454;2022-08-19T10:48:31;7.73;;;2.00;;
19798;SDS011;10059;59.850;10.454;2022-08-19T10:50:58;4.47;;;1.37;;
19798;SDS011;10059;59.850;10.454;2022-08-19T10:53:43;7.40;;;1.80;;
19798;SDS011;10059;59.850;10.454;2022-08-19T10:56:10;6.30;;;1.80;;
19798;SDS011;10059;59.850;10.454;2022-08-19T10:58:55;5.90;;;1.63;;
19798;SDS011;10059;59.850;10.454;2022-08-19T11:01:22;7.47;;;1.80;;
19798;SDS011;10059;59.850;10.454;2022-08-19T11:03:49;3.97;;;1.80;;
19798;SDS011;10059;59.850;10.454;2022-08-19T11:06:17;5.97;;;1.60;;
19798;SDS011;10059;59.850;10.454;2022-08-19T11:08:46;9.10;;;2.03;;
19798;SDS011;10059;59.850;10.454;2022-08-19T11:11:13;4.93;;;1.60;;
19798;SDS011;10059;59.850;10.454;2022-08-19T11:13:41;6.03;;;1.87;;
19798;SDS011;10059;59.850;10.454;2022-08-19T11:16:11;6.27;;;1.93;;
19798;SDS011;10059;59.850;10.454;2022-08-19T11:18:41;3.33;;;1.80;;
19798;SDS011;10059;59.850;10.454;2022-08-19T11:21:11;7.23;;;1.80;;
19798;SDS011;10059;59.850;10.454;2022-08-19T11:23:42;3.63;;;1.50;;
19798;SDS011;10059;59.850;10.454;2022-08-19T11:26:11;3.10;;;1.37;;
19798;SDS011;10059;59.850;10.454;2022-08-19T11:28:39;6.67;;;1.50;;
19798;SDS011;10059;59.850;10.454;2022-08-19T11:31:09;4.33;;;1.67;;
19798;SDS011;10059;59.850;10.454;2022-08-19T11:33:36;4.17;;;1.47;;
19798;SDS011;10059;59.850;10.454;2022-08-19T11:36:04;3.60;;;1.37;;
19798;SDS011;10059;59.850;10.454;2022-08-19T11:38:32;5.57;;;1.50;;
19798;SDS011;10059;59.850;10.454;2022-08-19T11:41:01;5.23;;;1.63;;
19798;SDS011;10059;59.850;10.454;2022-08-19T11:43:31;4.37;;;1.60;;
19798;SDS011;10059;59.850;10.454;2022-08-19T11:45:58;4.77;;;1.40;;
19798;SDS011;10059;59.850;10.454;2022-08-19T11:48:25;3.93;;;1.30;;
19798;SDS011;10059;59.850;10.454;2022-08-19T11:50:52;4.70;;;1.40;;
19798;SDS011;10059;59.850;10.454;2022-08-19T11:53:21;3.27;;;1.30;;
19798;SDS011;10059;59.850;10.454;2022-08-19T11:55:49;5.93;;;1.40;;
19798;SDS011;10059;59.850;10.454;2022-08-19T11:58:17;4.87;;;1.60;;
19798;SDS011;10059;59.850;10.454;2022-08-19T12:00:45;4.80;;;1.57;;
19798;SDS011;10059;59.850;10.454;2022-08-19T12:03:12;2.93;;;1.20;;
19798;SDS011;10059;59.850;10.454;2022-08-19T12:05:40;3.13;;;1.40;;
19798;SDS011;10059;59.850;10.454;2022-08-19T12:08:08;3.63;;;1.50;;
19798;SDS011;10059;59.850;10.454;2022-08-19T12:10:36;5.07;;;1.47;;
19798;SDS011;10059;59.850;10.454;2022-08-19T12:13:03;6.07;;;1.60;;
19798;SDS011;10059;59.850;10.454;2022-08-19T12:15:34;2.00;;;1.17;;
19798;SDS011;10059;59.850;10.454;2022-08-19T12:18:03;5.03;;;1.50;;
19798;SDS011;10059;59.850;10.454;2022-08-19T12:20:32;3.73;;;1.60;;
19798;SDS011;10059;59.850;10.454;2022-08-19T12:23:01;3.50;;;1.50;;
19798;SDS011;10059;59.850;10.454;2022-08-19T12:25:28;2.40;;;1.03;;
19798;SDS011;10059;59.850;10.454;2022-08-19T12:27:56;5.13;;;1.30;;
19798;SDS011;10059;59.850;10.454;2022-08-19T12:30:24;4.67;;;1.50;;
19798;SDS011;10059;59.850;10.454;2022-08-19T12:32:51;2.93;;;1.20;;
19798;SDS011;10059;59.850;10.454;2022-08-19T12:35:19;4.23;;;1.43;;
19798;SDS011;10059;59.850;10.454;2022-08-19T12:37:47;1.30;;;0.87;;
19798;SDS011;10059;59.850;10.454;2022-08-19T12:40:15;2.30;;;0.90;;
19798;SDS011;10059;59.850;10.454;2022-08-19T12:42:44;4.30;;;1.00;;
19798;SDS011;10059;59.850;10.454;2022-08-19T12:45:11;3.17;;;0.80;;
19798;SDS011;10059;59.850;10.454;2022-08-19T12:47:39;2.30;;;1.00;;
19798;SDS011;10059;59.850;10.454;2022-08-19T12:50:06;1.83;;;1.10;;
19798;SDS011;10059;59.850;10.454;2022-08-19T12:52:36;3.13;;;1.07;;
19798;SDS011;10059;59.850;10.454;2022-08-19T12:55:03;1.47;;;1.00;;
19798;SDS011;10059;59.850;10.454;2022-08-19T12:57:32;2.57;;;1.10;;
19798;SDS011;10059;59.850;10.454;2022-08-19T13:00:04;2.77;;;1.00;;
19798;SDS011;10059;59.850;10.454;2022-08-19T13:02:35;2.27;;;1.03;;
19798;SDS011;10059;59.850;10.454;2022-08-19T13:05:02;2.30;;;1.10;;
19798;SDS011;10059;59.850;10.454;2022-08-19T13:07:31;4.40;;;1.13;;
19798;SDS011;10059;59.850;10.454;2022-08-19T13:10:01;2.00;;;1.20;;
19798;SDS011;10059;59.850;10.454;2022-08-19T13:12:28;5.00;;;1.43;;
19798;SDS011;10059;59.850;10.454;2022-08-19T13:14:55;2.83;;;1.10;;
19798;SDS011;10059;59.850;10.454;2022-08-19T13:17:22;2.60;;;1.20;;
19798;SDS011;10059;59.850;10.454;2022-08-19T13:19:49;4.20;;;1.20;;
19798;SDS011;10059;59.850;10.454;2022-08-19T13:22:16;4.03;;;1.20;;
19798;SDS011;10059;59.850;10.454;2022-08-19T13:24:43;2.23;;;1.00;;
19798;SDS011;10059;59.850;10.454;2022-08-19T13:27:12;2.50;;;1.40;;
19798;SDS011;10059;59.850;10.454;2022-08-19T13:29:39;5.83;;;1.37;;
19798;SDS011;10059;59.850;10.454;2022-08-19T13:32:24;2.00;;;1.10;;
19798;SDS011;10059;59.850;10.454;2022-08-19T13:35:08;2.37;;;1.20;;
19798;SDS011;10059;59.850;10.454;2022-08-19T13:37:35;2.73;;;1.20;;
19798;SDS011;10059;59.850;10.454;2022-08-19T13:40:09;3.80;;;1.13;;
19798;SDS011;10059;59.850;10.454;2022-08-19T13:42:41;2.87;;;1.30;;
19798;SDS011;10059;59.850;10.454;2022-08-19T13:45:08;3.77;;;1.50;;
19798;SDS011;10059;59.850;10.454;2022-08-19T13:47:36;5.90;;;1.40;;
19798;SDS011;10059;59.850;10.454;2022-08-19T13:50:07;2.63;;;1.47;;
19798;SDS011;10059;59.850;10.454;2022-08-19T13:52:35;3.17;;;1.57;;
19798;SDS011;10059;59.850;10.454;2022-08-19T13:55:03;4.13;;;1.20;;
19798;SDS011;10059;59.850;10.454;2022-08-19T13:57:30;3.03;;;1.20;;
19798;SDS011;10059;59.850;10.454;2022-08-19T13:59:59;3.47;;;1.20;;
19798;SDS011;10059;59.850;10.454;2022-08-19T14:02:26;3.63;;;1.20;;
19798;SDS011;10059;59.850;10.454;2022-08-19T14:04:53;3.93;;;1.40;;
19798;SDS011;10059;59.850;10.454;2022-08-19T14:07:20;2.50;;;1.10;;
19798;SDS011;10059;59.850;10.454;2022-08-19T14:09:49;4.33;;;1.50;;
19798;SDS011;10059;59.850;10.454;2022-08-19T14:12:18;2.43;;;1.30;;
19798;SDS011;10059;59.850;10.454;2022-08-19T14:14:45;2.93;;;1.13;;
19798;SDS011;10059;59.850;10.454;2022-08-19T14:17:14;2.73;;;1.40;;
19798;SDS011;10059;59.850;10.454;2022-08-19T14:19:41;2.57;;;1.20;;
19798;SDS011;10059;59.850;10.454;2022-08-19T14:22:08;4.80;;;1.40;;
19798;SDS011;10059;59.850;10.454;2022-08-19T14:24:36;1.60;;;1.07;;
19798;SDS011;10059;59.850;10.454;2022-08-19T14:27:05;2.47;;;1.20;;
19798;SDS011;10059;59.850;10.454;2022-08-19T14:29:32;3.07;;;1.20;;
19798;SDS011;10059;59.850;10.454;2022-08-19T14:31:59;1.87;;;1.17;;
19798;SDS011;10059;59.850;10.454;2022-08-19T14:34:28;5.50;;;1.80;;
19798;SDS011;10059;59.850;10.454;2022-08-19T14:36:56;2.37;;;1.07;;